Time;durP1;ratioP1;P1;durP2;ratioP2;P2;SDS_P1;SDS_P2;PMS_P1;PMS_P2;Temp;Humidity;BMP_temperature;BMP_pressure;BME280_temperature;BME280_humidity;BME280_pressure;Samples;Min_cycle;Max_cycle;Signal;HPM_P1;HPM_P2
2022/05/20 00:01:06;;;;;;;52.33;33.07;;;;;;;-145.18;100.00;60484.78;5043266;28;20048;-67
2022/05/20 00:03:32;;;;;;;55.40;33.93;;;;;;;-145.18;100.00;60484.78;5035329;28;20358;-67
2022/05/20 00:05:59;;;;;;;51.47;33.40;;;;;;;-145.18;100.00;60484.78;5038340;28;20045;-67
2022/05/20 00:08:24;;;;;;;48.58;31.60;;;;;;;-145.18;100.00;60484.78;5035746;28;20400;-67
2022/05/20 00:10:53;;;;;;;46.67;30.73;;;;;;;-145.18;100.00;60484.78;5048450;28;20033;-67
2022/05/20 00:13:20;;;;;;;48.20;30.13;;;;;;;-145.18;100.00;60484.78;5036125;28;20021;-67
2022/05/20 00:15:46;;;;;;;40.00;27.67;;;;;;;-145.18;100.00;60484.78;5036543;28;20032;-67
2022/05/20 00:18:11;;;;;;;38.10;27.83;;;;;;;-145.18;100.00;60484.78;5036645;28;20025;-67
2022/05/20 00:20:37;;;;;;;40.30;26.35;;;;;;;-145.18;100.00;60484.78;5034587;28;20029;-67
2022/05/20 00:23:03;;;;;;;39.03;26.40;;;;;;;-145.18;100.00;60484.78;5041029;28;20077;-67
2022/05/20 00:25:46;;;;;;;40.35;29.50;;;;;;;-145.18;100.00;60484.78;5037491;28;20033;-67
2022/05/20 00:28:22;;;;;;;41.10;28.30;;;;;;;-145.18;100.00;60484.78;5040267;28;20613;-67
2022/05/20 00:30:54;;;;;;;38.77;26.97;;;;;;;-145.18;100.00;60484.78;5040884;28;20714;-67
2022/05/20 00:33:20;;;;;;;43.17;31.30;;;;;;;-145.18;100.00;60484.78;5033368;28;20055;-67
2022/05/20 00:35:45;;;;;;;44.30;29.97;;;;;;;-145.18;100.00;60484.78;5035214;28;20039;-67
2022/05/20 00:38:11;;;;;;;40.70;29.47;;;;;;;-145.18;100.00;60484.78;5037343;28;20229;-67
2022/05/20 00:40:37;;;;;;;38.58;27.08;;;;;;;-145.18;100.00;60484.78;5034582;28;20070;-67
2022/05/20 00:43:12;;;;;;;40.00;27.85;;;;;;;-145.18;100.00;60484.78;5031780;28;20120;-67
2022/05/20 00:45:38;;;;;;;40.42;29.65;;;;;;;-145.18;100.00;60484.78;5030665;28;20048;-67
2022/05/20 00:48:04;;;;;;;36.03;25.90;;;;;;;-145.18;100.00;60484.78;5031029;28;20040;-67
2022/05/20 00:50:30;;;;;;;35.60;25.93;;;;;;;-145.18;100.00;60484.78;5029289;28;20033;-67
2022/05/20 00:52:56;;;;;;;34.83;26.77;;;;;;;-145.18;100.00;60484.78;5038845;28;20482;-67
2022/05/20 00:55:23;;;;;;;34.00;26.07;;;;;;;-145.18;100.00;60484.78;5038876;28;20040;-67
2022/05/20 00:57:52;;;;;;;34.95;25.80;;;;;;;-145.18;100.00;60484.78;5031968;28;20163;-67
2022/05/20 01:00:24;;;;;;;36.83;25.45;;;;;;;-145.18;100.00;60484.78;5030868;28;20367;-67
2022/05/20 01:02:54;;;;;;;41.45;25.90;;;;;;;-145.18;100.00;60484.78;5040603;28;20036;-67
2022/05/20 01:05:38;;;;;;;35.25;26.08;;;;;;;-145.18;100.00;60484.78;5047811;28;20394;-67
2022/05/20 01:08:06;;;;;;;37.93;27.87;;;;;;;-145.18;100.00;60484.78;5029273;28;20027;-68
2022/05/20 01:10:31;;;;;;;42.83;28.98;;;;;;;-145.18;100.00;60484.78;5030081;28;20047;-67
2022/05/20 01:12:58;;;;;;;47.23;31.50;;;;;;;-145.18;100.00;60484.78;5038097;28;20029;-67
2022/05/20 01:15:23;;;;;;;46.90;32.57;;;;;;;-145.18;100.00;60484.78;5033751;28;20037;-67
2022/05/20 01:17:52;;;;;;;50.07;35.10;;;;;;;-145.18;100.00;60484.78;5033461;28;20021;-67
2022/05/20 01:20:27;;;;;;;51.30;35.97;;;;;;;-145.18;100.00;60484.78;5031479;28;20052;-67
2022/05/20 01:23:00;;;;;;;57.00;38.37;;;;;;;-145.18;100.00;60484.78;5039651;28;20367;-67
2022/05/20 01:25:27;;;;;;;58.60;39.20;;;;;;;-145.18;100.00;60484.78;5041227;28;20549;-67
2022/05/20 01:27:53;;;;;;;55.97;38.97;;;;;;;-145.18;100.00;60484.78;5035153;28;20029;-67
2022/05/20 01:30:22;;;;;;;55.27;38.67;;;;;;;-145.18;100.00;60484.78;5033860;28;20024;-67
2022/05/20 01:32:48;;;;;;;54.93;38.40;;;;;;;-145.18;100.00;60484.78;5033556;28;20037;-67
2022/05/20 01:35:26;;;;;;;59.23;39.47;;;;;;;-145.18;100.00;60484.78;5039575;28;20029;-67
2022/05/20 01:37:52;;;;;;;64.20;41.47;;;;;;;-145.18;100.00;60484.78;5036128;28;20049;-68
2022/05/20 01:40:17;;;;;;;61.53;40.60;;;;;;;-145.18;100.00;60484.78;5034762;28;20111;-68
2022/05/20 01:42:53;;;;;;;65.70;39.47;;;;;;;-145.18;100.00;60484.78;5034293;28;20029;-68
2022/05/20 01:45:27;;;;;;;61.53;39.63;;;;;;;-145.18;100.00;60484.78;5038405;28;20025;-67
2022/05/20 01:48:05;;;;;;;54.20;38.17;;;;;;;-145.18;100.00;60484.78;5033351;28;20029;-67
2022/05/20 01:50:36;;;;;;;47.97;36.07;;;;;;;-145.18;100.00;60484.78;5043496;28;20103;-67
2022/05/20 01:53:17;;;;;;;53.72;37.03;;;;;;;-145.18;100.00;60484.78;5032138;28;20044;-67
2022/05/20 01:55:49;;;;;;;52.35;36.75;;;;;;;-145.18;100.00;60484.78;5034697;28;20389;-67
2022/05/20 01:58:21;;;;;;;50.30;35.73;;;;;;;-145.18;100.00;60484.78;5043112;28;20049;-67
2022/05/20 02:00:51;;;;;;;48.72;35.13;;;;;;;-145.18;100.00;60484.78;5033846;28;20033;-67
2022/05/20 02:03:31;;;;;;;50.53;34.97;;;;;;;-145.18;100.00;60484.78;5037693;28;20038;-67
2022/05/20 02:06:12;;;;;;;51.33;36.70;;;;;;;-145.18;100.00;60484.78;5047277;28;20439;-67
2022/05/20 02:08:57;;;;;;;49.70;36.30;;;;;;;-145.18;100.00;60484.78;5036823;28;20115;-68
2022/05/20 02:11:29;;;;;;;52.77;33.73;;;;;;;-145.18;100.00;60484.78;5032760;28;20060;-67
2022/05/20 02:14:32;;;;;;;47.73;35.87;;;;;;;-145.18;100.00;60484.78;5040158;28;20079;-67
2022/05/20 02:17:18;;;;;;;34.30;25.43;;;;;;;-145.18;100.00;60484.78;5038215;28;20025;-67
2022/05/20 02:19:48;;;;;;;31.50;24.30;;;;;;;-145.18;100.00;60484.78;5033445;28;20032;-67
2022/05/20 02:22:17;;;;;;;30.20;21.83;;;;;;;-145.18;100.00;60484.78;5038877;28;20037;-67
2022/05/20 02:24:44;;;;;;;26.77;21.63;;;;;;;-145.18;100.00;60484.78;5040869;28;20024;-67
2022/05/20 02:27:17;;;;;;;29.50;23.20;;;;;;;-145.18;100.00;60484.78;5038915;28;20103;-67
2022/05/20 02:29:47;;;;;;;28.00;20.60;;;;;;;-145.18;100.00;60484.78;5042541;28;20036;-67
2022/05/20 02:32:39;;;;;;;29.40;21.33;;;;;;;-145.18;100.00;60484.78;5034438;28;20029;-68
2022/05/20 02:35:04;;;;;;;28.60;21.63;;;;;;;-145.18;100.00;60484.78;5047796;28;20431;-67
2022/05/20 02:37:33;;;;;;;28.87;22.47;;;;;;;-145.18;100.00;60484.78;5038605;28;20199;-67
2022/05/20 02:39:59;;;;;;;30.07;23.97;;;;;;;-145.18;100.00;60484.78;5045026;28;20029;-67
2022/05/20 02:42:28;;;;;;;29.83;24.67;;;;;;;-145.18;100.00;60484.78;5036313;28;20029;-67
2022/05/20 02:44:55;;;;;;;30.33;22.43;;;;;;;-145.18;100.00;60484.78;5034522;28;20028;-67
2022/05/20 02:47:20;;;;;;;28.60;21.43;;;;;;;-145.18;100.00;60484.78;5030387;28;20025;-67
2022/05/20 02:49:46;;;;;;;26.60;19.90;;;;;;;-145.18;100.00;60484.78;5031683;28;20029;-67
2022/05/20 02:52:11;;;;;;;22.47;17.10;;;;;;;-145.18;100.00;60484.78;5037960;28;20020;-67
2022/05/20 02:54:38;;;;;;;22.10;16.83;;;;;;;-145.18;100.00;60484.78;5032210;28;20029;-67
2022/05/20 02:57:04;;;;;;;20.43;15.10;;;;;;;-145.18;100.00;60484.78;5033874;28;20025;-67
2022/05/20 03:04:57;;;;;;;16.97;12.77;;;;;;;-145.18;100.00;60484.78;5039209;28;20111;-67
2022/05/20 03:07:23;;;;;;;16.83;12.97;;;;;;;-145.18;100.00;60484.78;5039382;28;20048;-67
2022/05/20 03:09:48;;;;;;;18.47;11.70;;;;;;;-145.18;100.00;60484.78;5035198;28;20032;-67
2022/05/20 03:12:14;;;;;;;15.43;12.13;;;;;;;-145.18;100.00;60484.78;5031614;28;20941;-67
2022/05/20 03:14:40;;;;;;;16.20;12.13;;;;;;;-145.18;100.00;60484.78;5034832;28;20040;-67
2022/05/20 03:17:06;;;;;;;16.07;10.90;;;;;;;-145.18;100.00;60484.78;5033867;28;20049;-67
2022/05/20 03:19:33;;;;;;;15.37;11.00;;;;;;;-145.18;100.00;60484.78;5032794;28;20108;-67
2022/05/20 03:21:59;;;;;;;14.43;11.70;;;;;;;-145.18;100.00;60484.78;5036272;28;20041;-67
2022/05/20 03:24:25;;;;;;;16.10;11.23;;;;;;;-145.18;100.00;60484.78;5036488;28;20033;-67
2022/05/20 03:26:51;;;;;;;14.73;11.73;;;;;;;-145.18;100.00;60484.78;5036177;28;20098;-67
2022/05/20 03:29:16;;;;;;;16.97;10.83;;;;;;;-145.18;100.00;60484.78;5036194;28;20029;-66
2022/05/20 03:31:42;;;;;;;16.73;11.10;;;;;;;-145.18;100.00;60484.78;5035805;28;20064;-66
2022/05/20 03:34:09;;;;;;;10.47;8.80;;;;;;;-145.18;100.00;60484.78;5036282;28;20135;-67
2022/05/20 03:36:38;;;;;;;14.97;9.30;;;;;;;-145.18;100.00;60484.78;5034638;28;20447;-67
2022/05/20 03:39:05;;;;;;;12.30;9.13;;;;;;;-145.18;100.00;60484.78;5040205;28;20026;-67
2022/05/20 03:41:31;;;;;;;12.67;9.03;;;;;;;-145.18;100.00;60484.78;5049651;28;20035;-67
2022/05/20 03:43:56;;;;;;;13.37;9.57;;;;;;;-145.18;100.00;60484.78;5044046;28;20033;-67
2022/05/20 03:46:22;;;;;;;13.53;9.43;;;;;;;-145.18;100.00;60484.78;5034653;28;20040;-67
2022/05/20 03:48:47;;;;;;;11.37;8.23;;;;;;;-145.18;100.00;60484.78;5042745;28;20029;-67
2022/05/20 03:51:14;;;;;;;12.40;7.73;;;;;;;-145.18;100.00;60484.78;5031995;28;20111;-67
2022/05/20 03:53:40;;;;;;;10.67;8.00;;;;;;;-145.18;100.00;60484.78;5031475;28;20072;-67
2022/05/20 03:56:06;;;;;;;14.67;8.30;;;;;;;-145.18;100.00;60484.78;5036216;28;20036;-67
2022/05/20 03:58:32;;;;;;;12.40;8.60;;;;;;;-145.18;100.00;60484.78;5031418;28;20076;-67
2022/05/20 04:03:46;;;;;;;9.40;7.37;;;;;;;-145.18;100.00;60484.78;5045787;28;20142;-67
2022/05/20 04:06:13;;;;;;;13.43;8.63;;;;;;;-145.18;100.00;60484.78;5049971;28;20090;-66
2022/05/20 04:08:39;;;;;;;11.37;7.40;;;;;;;-145.18;100.00;60484.78;5049326;28;20039;-66
2022/05/20 04:11:06;;;;;;;10.90;7.90;;;;;;;-145.18;100.00;60484.78;5037433;28;20029;-66
2022/05/20 04:13:33;;;;;;;12.03;7.23;;;;;;;-145.18;100.00;60484.78;5032291;28;20029;-66
2022/05/20 04:15:58;;;;;;;12.77;7.63;;;;;;;-145.18;100.00;60484.78;5034034;28;20117;-67
2022/05/20 04:18:24;;;;;;;11.10;7.63;;;;;;;-145.18;100.00;60484.78;5030798;28;20100;-66
2022/05/20 04:20:50;;;;;;;11.47;7.60;;;;;;;-145.18;100.00;60484.78;5034795;28;20032;-66
2022/05/20 04:23:17;;;;;;;10.50;7.37;;;;;;;-145.18;100.00;60484.78;5033517;28;20163;-66
2022/05/20 04:25:44;;;;;;;10.40;7.20;;;;;;;-145.18;100.00;60484.78;5049571;28;20025;-66
2022/05/20 04:28:10;;;;;;;10.87;6.60;;;;;;;-145.18;100.00;60484.78;5036610;28;20057;-66
2022/05/20 04:30:36;;;;;;;11.30;6.40;;;;;;;-145.18;100.00;60484.78;5029956;28;20025;-67
2022/05/20 04:33:02;;;;;;;8.63;5.80;;;;;;;-145.18;100.00;60484.78;5042740;28;20115;-66
2022/05/20 04:35:28;;;;;;;8.27;5.63;;;;;;;-145.18;100.00;60484.78;5041935;28;20507;-67
2022/05/20 04:37:53;;;;;;;8.13;5.23;;;;;;;-145.18;100.00;60484.78;5041680;28;20025;-67
2022/05/20 04:40:18;;;;;;;7.53;4.83;;;;;;;-145.18;100.00;60484.78;5029705;28;20040;-67
2022/05/20 04:46:56;;;;;;;7.40;4.47;;;;;;;-145.18;100.00;60484.78;5037485;28;20052;-67
2022/05/20 04:48:31;;;;;;;8.55;4.43;;;;;;;-145.18;100.00;60484.78;5030130;28;20494;-68
2022/05/20 04:50:57;;;;;;;7.10;4.30;;;;;;;-145.18;100.00;60484.78;5030823;28;20148;-68
2022/05/20 04:56:06;;;;;;;8.65;3.67;;;;;;;-145.18;100.00;60484.78;5030524;28;20086;-68
2022/05/20 04:58:31;;;;;;;9.68;3.33;;;;;;;-145.18;100.00;60484.78;5032424;28;20427;-68
2022/05/20 05:00:58;;;;;;;6.68;3.35;;;;;;;-145.18;100.00;60484.78;5037677;28;20172;-68
2022/05/20 05:03:23;;;;;;;8.52;3.42;;;;;;;-145.18;100.00;60484.78;5040038;28;20034;-68
2022/05/20 05:05:49;;;;;;;7.18;3.45;;;;;;;-145.18;100.00;60484.78;5032036;28;20029;-68
2022/05/20 05:08:16;;;;;;;6.63;3.45;;;;;;;-145.18;100.00;60484.78;5030255;28;20026;-68
2022/05/20 05:10:43;;;;;;;8.23;3.72;;;;;;;-145.18;100.00;60484.78;5032045;28;20401;-67
2022/05/20 05:13:09;;;;;;;7.38;3.85;;;;;;;-145.18;100.00;60484.78;5034131;28;20025;-68
2022/05/20 05:15:35;;;;;;;6.55;4.20;;;;;;;-145.18;100.00;60484.78;5035076;28;20025;-67
2022/05/20 05:18:11;;;;;;;6.68;3.88;;;;;;;-145.18;100.00;60484.78;5038525;28;20409;-67
2022/05/20 05:20:45;;;;;;;10.82;5.03;;;;;;;-145.18;100.00;60484.78;5036905;28;20045;-67
2022/05/20 05:23:10;;;;;;;8.52;5.25;;;;;;;-145.18;100.00;60484.78;5034212;28;20492;-67
2022/05/20 05:25:36;;;;;;;9.93;5.18;;;;;;;-145.18;100.00;60484.78;5033915;28;20025;-67
2022/05/20 05:28:03;;;;;;;10.75;5.68;;;;;;;-145.18;100.00;60484.78;5038135;28;20040;-67
2022/05/20 05:30:29;;;;;;;9.60;5.60;;;;;;;-145.18;100.00;60484.78;5051129;28;20048;-67
2022/05/20 05:32:54;;;;;;;7.80;5.50;;;;;;;-145.18;100.00;60484.78;5038969;28;20021;-67
2022/05/20 05:35:26;;;;;;;8.25;5.72;;;;;;;-145.18;100.00;60484.78;5033865;28;20034;-67
2022/05/20 05:37:52;;;;;;;10.38;6.18;;;;;;;-145.18;100.00;60484.78;5034736;28;20049;-67
2022/05/20 05:40:20;;;;;;;9.32;5.63;;;;;;;-145.18;100.00;60484.78;5034503;28;20096;-67
2022/05/20 05:42:46;;;;;;;10.65;5.65;;;;;;;-145.18;100.00;60484.78;5033275;28;20021;-67
2022/05/20 05:45:15;;;;;;;9.77;5.60;;;;;;;-145.18;100.00;60484.78;5043411;28;20167;-67
2022/05/20 05:47:41;;;;;;;8.80;4.72;;;;;;;-145.18;100.00;60484.78;5038913;28;20033;-69
2022/05/20 05:50:08;;;;;;;7.45;4.93;;;;;;;-145.18;100.00;60484.78;5051367;28;20024;-69
2022/05/20 05:52:33;;;;;;;6.25;3.90;;;;;;;-145.18;100.00;60484.78;5048703;28;20158;-69
2022/05/20 05:55:01;;;;;;;5.93;4.05;;;;;;;-145.18;100.00;60484.78;5034441;28;20112;-68
2022/05/20 05:57:28;;;;;;;10.75;4.80;;;;;;;-145.18;100.00;60484.78;5036814;28;20052;-68
2022/05/20 05:59:54;;;;;;;7.40;4.30;;;;;;;-145.18;100.00;60484.78;5033048;28;20080;-69
2022/05/20 06:02:21;;;;;;;8.27;4.38;;;;;;;-145.18;100.00;60484.78;5039996;28;20064;-68
2022/05/20 06:04:47;;;;;;;8.13;4.70;;;;;;;-145.18;100.00;60484.78;5047145;28;20040;-68
2022/05/20 06:07:12;;;;;;;8.35;4.60;;;;;;;-145.18;100.00;60484.78;5050956;28;20025;-68
2022/05/20 06:09:37;;;;;;;6.70;4.35;;;;;;;-145.18;100.00;60484.78;5050326;28;20024;-68
2022/05/20 06:12:03;;;;;;;9.18;4.50;;;;;;;-145.18;100.00;60484.78;5045937;28;20029;-68
2022/05/20 06:14:29;;;;;;;11.48;4.60;;;;;;;-145.18;100.00;60484.78;5033412;28;20025;-68
2022/05/20 06:16:54;;;;;;;7.43;4.63;;;;;;;-145.18;100.00;60484.78;5033329;28;20033;-68
2022/05/20 06:19:19;;;;;;;10.88;4.60;;;;;;;-145.18;100.00;60484.78;5036063;28;20848;-68
2022/05/20 06:21:45;;;;;;;11.25;5.45;;;;;;;-145.18;100.00;60484.78;5050621;28;20473;-68
2022/05/20 06:24:10;;;;;;;8.15;4.88;;;;;;;-145.18;100.00;60484.78;5041216;28;20033;-68
2022/05/20 06:26:37;;;;;;;10.10;4.97;;;;;;;-145.18;100.00;60484.78;5033210;28;20029;-68
2022/05/20 06:29:04;;;;;;;6.63;4.53;;;;;;;-145.18;100.00;60484.78;5045964;28;20623;-68
2022/05/20 06:31:30;;;;;;;8.15;4.35;;;;;;;-145.18;100.00;60484.78;5044723;28;20032;-68
2022/05/20 06:33:57;;;;;;;7.35;4.32;;;;;;;-145.18;100.00;60484.78;5032901;28;20462;-69
2022/05/20 06:41:51;;;;;;;13.18;5.03;;;;;;;-145.18;100.00;60484.78;5050538;28;20087;-68
2022/05/20 06:44:16;;;;;;;9.02;4.95;;;;;;;-145.18;100.00;60484.78;5051404;28;20025;-68
2022/05/20 06:46:42;;;;;;;7.13;3.92;;;;;;;-145.18;100.00;60484.78;5049159;28;20039;-68
2022/05/20 06:49:07;;;;;;;6.15;4.40;;;;;;;-145.18;100.00;60484.78;5041261;28;20033;-68
2022/05/20 06:51:36;;;;;;;7.78;4.05;;;;;;;-145.18;100.00;60484.78;5033078;28;20112;-69
2022/05/20 06:54:03;;;;;;;7.13;4.07;;;;;;;-145.18;100.00;60484.78;5040759;28;20108;-68
2022/05/20 06:56:30;;;;;;;6.70;3.22;;;;;;;-145.18;100.00;60484.78;5050887;28;20021;-68
2022/05/20 06:58:58;;;;;;;7.68;3.58;;;;;;;-145.18;100.00;60484.78;5051299;28;20013;-68
2022/05/20 07:01:24;;;;;;;6.72;3.42;;;;;;;-145.18;100.00;60484.78;5036686;28;20051;-68
2022/05/20 07:03:50;;;;;;;6.63;3.17;;;;;;;-145.18;100.00;60484.78;5049751;28;20025;-68
2022/05/20 07:06:16;;;;;;;6.88;3.15;;;;;;;-145.18;100.00;60484.78;5050976;28;20032;-69
2022/05/20 07:08:48;;;;;;;6.55;3.72;;;;;;;-145.18;100.00;60484.78;5050857;28;20535;-68
2022/05/20 07:11:13;;;;;;;8.63;3.95;;;;;;;-145.18;100.00;60484.78;5045454;28;20030;-68
2022/05/20 07:13:39;;;;;;;7.30;4.28;;;;;;;-145.18;100.00;60484.78;5032233;28;20025;-68
2022/05/20 07:16:04;;;;;;;8.65;4.15;;;;;;;-145.18;100.00;60484.78;5032332;28;20466;-68
2022/05/20 07:18:30;;;;;;;6.75;3.97;;;;;;;-145.18;100.00;60484.78;5039817;28;20021;-68
2022/05/20 07:20:56;;;;;;;6.18;3.70;;;;;;;-145.18;100.00;60484.78;5031889;28;20017;-68
2022/05/20 07:23:24;;;;;;;9.98;3.90;;;;;;;-145.18;100.00;60484.78;5047077;28;20437;-69
2022/05/20 07:25:51;;;;;;;6.15;3.97;;;;;;;-145.18;100.00;60484.78;5049229;28;20444;-68
2022/05/20 07:28:17;;;;;;;9.65;5.10;;;;;;;-145.18;100.00;60484.78;5038540;28;20026;-69
2022/05/20 07:30:42;;;;;;;10.70;6.05;;;;;;;-145.18;100.00;60484.78;5031653;28;20535;-71
2022/05/20 07:33:07;;;;;;;17.75;7.78;;;;;;;-145.18;100.00;60484.78;5033808;28;20029;-68
2022/05/20 07:35:33;;;;;;;10.05;6.53;;;;;;;-145.18;100.00;60484.78;5031793;28;20017;-68
2022/05/20 07:37:58;;;;;;;13.88;8.18;;;;;;;-145.18;100.00;60484.78;5031576;28;20496;-68
2022/05/20 07:40:23;;;;;;;12.23;8.65;;;;;;;-145.18;100.00;60484.78;5031719;28;20037;-68
2022/05/20 07:42:49;;;;;;;12.40;8.20;;;;;;;-145.18;100.00;60484.78;5044491;28;20532;-68
2022/05/20 07:45:16;;;;;;;9.80;7.50;;;;;;;-145.18;100.00;60484.78;5049166;28;20040;-68
2022/05/20 07:47:42;;;;;;;11.25;8.43;;;;;;;-145.18;100.00;60484.78;5038846;28;20033;-68
2022/05/20 07:50:09;;;;;;;10.75;8.93;;;;;;;-145.18;100.00;60484.78;5038452;28;20029;-68
2022/05/20 07:55:25;;;;;;;13.05;8.75;;;;;;;-145.18;100.00;60484.78;5031524;28;20028;-68
2022/05/20 07:57:52;;;;;;;11.98;8.02;;;;;;;-145.18;100.00;60484.78;5031299;28;20024;-68
2022/05/20 08:00:19;;;;;;;10.50;8.13;;;;;;;-145.18;100.00;60484.78;5031049;28;20053;-68
2022/05/20 08:02:44;;;;;;;11.25;7.97;;;;;;;-145.18;100.00;60484.78;5045263;28;20028;-67
2022/05/20 08:05:11;;;;;;;12.05;7.30;;;;;;;-145.18;100.00;60484.78;5049700;28;20029;-68
2022/05/20 08:07:41;;;;;;;9.43;6.43;;;;;;;-145.18;100.00;60484.78;5049922;28;20086;-68
2022/05/20 08:10:19;;;;;;;8.30;5.38;;;;;;;-145.18;100.00;60484.78;5031280;28;20017;-68
2022/05/20 08:12:45;;;;;;;10.80;5.70;;;;;;;-145.18;100.00;60484.78;5046431;28;20020;-68
2022/05/20 08:15:11;;;;;;;12.98;5.50;;;;;;;-145.18;100.00;60484.78;5034217;28;20407;-68
2022/05/20 08:17:40;;;;;;;9.10;5.35;;;;;;;-145.18;100.00;60484.78;5040965;28;20024;-68
2022/05/20 08:20:09;;;;;;;9.38;4.78;;;;;;;-145.18;100.00;60484.78;5048684;28;20424;-69
2022/05/20 08:22:35;;;;;;;7.78;4.20;;;;;;;-145.18;100.00;60484.78;5049977;28;20029;-68
2022/05/20 08:25:01;;;;;;;8.07;4.20;;;;;;;-145.18;100.00;60484.78;5049378;28;20124;-68
2022/05/20 08:27:29;;;;;;;7.57;3.85;;;;;;;-145.18;100.00;60484.78;5048617;28;20060;-68
2022/05/20 08:29:55;;;;;;;5.65;3.50;;;;;;;-145.18;100.00;60484.78;5049076;28;20048;-68
2022/05/20 08:32:21;;;;;;;7.40;3.13;;;;;;;-145.18;100.00;60484.78;5041267;28;20374;-68
2022/05/20 08:34:47;;;;;;;8.63;2.78;;;;;;;-145.18;100.00;60484.78;5031816;28;20025;-68
2022/05/20 08:37:14;;;;;;;5.97;2.65;;;;;;;-145.18;100.00;60484.78;5047399;28;20078;-68
2022/05/20 08:39:40;;;;;;;6.03;2.40;;;;;;;-145.18;100.00;60484.78;5041142;28;20049;-68
2022/05/20 08:42:17;;;;;;;6.95;2.75;;;;;;;-145.18;100.00;60484.78;5030863;28;20059;-68
2022/05/20 08:44:43;;;;;;;6.95;2.95;;;;;;;-145.18;100.00;60484.78;5044452;28;20024;-68
2022/05/20 08:47:14;;;;;;;7.05;2.60;;;;;;;-145.18;100.00;60484.78;5041026;28;20505;-68
2022/05/20 08:49:40;;;;;;;7.05;2.90;;;;;;;-145.18;100.00;60484.78;5030532;28;20129;-68
2022/05/20 08:52:05;;;;;;;7.72;2.50;;;;;;;-145.18;100.00;60484.78;5031762;28;20100;-69
2022/05/20 08:54:31;;;;;;;5.22;2.50;;;;;;;-145.18;100.00;60484.78;5049447;28;20101;-69
2022/05/20 08:56:58;;;;;;;6.32;2.53;;;;;;;-145.18;100.00;60484.78;5048153;28;20050;-68
2022/05/20 08:59:23;;;;;;;6.15;2.70;;;;;;;-145.18;100.00;60484.78;5049094;28;20017;-68
2022/05/20 09:01:51;;;;;;;5.07;2.50;;;;;;;-145.18;100.00;60484.78;5048276;28;20385;-68
2022/05/20 09:04:22;;;;;;;5.32;2.55;;;;;;;-145.18;100.00;60484.78;5048816;28;20062;-68
2022/05/20 09:07:23;;;;;;;6.05;2.47;;;;;;;-145.18;100.00;60484.78;5048172;28;20035;-68
2022/05/20 09:09:51;;;;;;;;;;;;;;;-145.18;100.00;60484.78;5031835;28;20041;-68
2022/05/20 09:12:31;;;;;;;4.57;2.15;;;;;;;-145.18;100.00;60484.78;5027753;28;20551;-68
2022/05/20 09:18:04;;;;;;;5.28;1.98;;;;;;;-145.18;100.00;60484.78;5036746;28;20135;-68
2022/05/20 09:20:30;;;;;;;5.53;2.33;;;;;;;-145.18;100.00;60484.78;5046320;28;20035;-68
2022/05/20 09:22:59;;;;;;;6.45;2.45;;;;;;;-145.18;100.00;60484.78;5044403;28;20115;-68
2022/05/20 09:25:28;;;;;;;7.07;2.55;;;;;;;-145.18;100.00;60484.78;5046068;28;20488;-68
2022/05/20 09:28:33;;;;;;;8.38;2.55;;;;;;;-145.18;100.00;60484.78;5045651;28;20060;-68
2022/05/20 09:31:12;;;;;;;5.03;2.22;;;;;;;-145.18;100.00;60484.78;5046159;28;20099;-68
2022/05/20 09:33:38;;;;;;;5.22;2.38;;;;;;;-145.18;100.00;60484.78;5029708;28;20421;-68
2022/05/20 09:36:04;;;;;;;6.72;2.50;;;;;;;-145.18;100.00;60484.78;5035004;28;20561;-68
2022/05/20 09:38:42;;;;;;;4.95;2.30;;;;;;;-145.18;100.00;60484.78;5045277;28;20064;-68
2022/05/20 09:41:16;;;;;;;7.32;2.60;;;;;;;-145.18;100.00;60484.78;5042110;28;20037;-68
2022/05/20 09:43:44;;;;;;;5.38;2.40;;;;;;;-145.18;100.00;60484.78;5041571;28;20099;-68
2022/05/20 09:46:29;;;;;;;7.50;2.50;;;;;;;-145.18;100.00;60484.78;5034365;28;20036;-68
2022/05/20 09:49:08;;;;;;;7.00;2.60;;;;;;;-145.18;100.00;60484.78;5038355;28;20025;-68
2022/05/20 09:51:54;;;;;;;8.23;2.53;;;;;;;-145.18;100.00;60484.78;5038611;28;20474;-68
2022/05/20 09:54:32;;;;;;;7.82;2.80;;;;;;;-145.18;100.00;60484.78;5030176;28;20642;-68
2022/05/20 09:57:12;;;;;;;5.90;2.53;;;;;;;-145.18;100.00;60484.78;5032021;28;20398;-68
2022/05/20 09:59:52;;;;;;;4.97;2.45;;;;;;;-145.18;100.00;60484.78;5035519;28;20036;-68
2022/05/20 10:02:24;;;;;;;5.05;2.30;;;;;;;-145.18;100.00;60484.78;5033330;28;20500;-68
2022/05/20 10:05:15;;;;;;;4.85;2.10;;;;;;;-145.18;100.00;60484.78;5042618;28;20078;-68
2022/05/20 10:07:49;;;;;;;11.10;3.78;;;;;;;-145.18;100.00;60484.78;5032979;28;20052;-68
2022/05/20 10:10:24;;;;;;;5.95;2.53;;;;;;;-145.18;100.00;60484.78;5036428;28;20496;-68
2022/05/20 10:12:53;;;;;;;4.38;2.25;;;;;;;-145.18;100.00;60484.78;5038775;28;20047;-68
2022/05/20 10:15:24;;;;;;;5.22;1.90;;;;;;;-145.18;100.00;60484.78;5035792;28;20025;-68
2022/05/20 10:18:04;;;;;;;5.70;2.10;;;;;;;-145.18;100.00;60484.78;5032795;28;20113;-68
2022/05/20 10:20:50;;;;;;;6.45;3.00;;;;;;;-145.18;100.00;60484.78;5038505;28;20025;-68
2022/05/20 10:23:23;;;;;;;6.38;2.42;;;;;;;-145.18;100.00;60484.78;5034923;28;20029;-68
2022/05/20 10:25:55;;;;;;;5.35;2.25;;;;;;;-145.18;100.00;60484.78;5039906;28;20044;-68
2022/05/20 10:34:19;;;;;;;6.03;2.47;;;;;;;-145.18;100.00;60484.78;5035483;28;20405;-68
2022/05/20 10:36:56;;;;;;;6.60;2.58;;;;;;;-145.18;100.00;60484.78;5047434;28;20028;-68
2022/05/20 10:39:30;;;;;;;4.88;2.00;;;;;;;-145.18;100.00;60484.78;5040414;28;20071;-67
2022/05/20 10:42:07;;;;;;;5.18;2.03;;;;;;;-145.18;100.00;60484.78;5038854;28;20021;-68
2022/05/20 10:51:03;;;;;;;4.90;2.17;;;;;;;-145.18;100.00;60484.78;5036359;28;20044;-67
2022/05/20 10:53:47;;;;;;;4.70;2.20;;;;;;;-145.18;100.00;60484.78;5044175;28;20532;-68
2022/05/20 10:56:30;;;;;;;6.80;2.65;;;;;;;-145.18;100.00;60484.78;5044073;28;20055;-68
2022/05/20 10:59:20;;;;;;;6.15;2.63;;;;;;;-145.18;100.00;60484.78;5033926;28;20071;-68
2022/05/20 11:01:54;;;;;;;6.78;2.60;;;;;;;-145.18;100.00;60484.78;5037212;28;20385;-68
2022/05/20 11:04:36;;;;;;;5.70;2.60;;;;;;;-145.18;100.00;60484.78;5050192;28;20041;-67
2022/05/20 11:07:17;;;;;;;5.57;2.38;;;;;;;-145.18;100.00;60484.78;5040666;28;20057;-68
2022/05/20 11:09:53;;;;;;;4.43;2.30;;;;;;;-145.18;100.00;60484.78;5044734;28;20548;-68
2022/05/20 11:12:44;;;;;;;6.05;2.72;;;;;;;-145.18;100.00;60484.78;5040633;28;20033;-68
2022/05/20 11:15:45;;;;;;;6.72;3.28;;;;;;;-145.18;100.00;60484.78;5044974;28;20029;-67
2022/05/20 11:18:39;;;;;;;6.80;2.88;;;;;;;-145.18;100.00;60484.78;5032505;28;20053;-68
2022/05/20 11:21:24;;;;;;;4.78;2.60;;;;;;;-145.18;100.00;60484.78;5067648;27;20703;-68
2022/05/20 11:24:26;;;;;;;7.88;2.60;;;;;;;-145.18;100.00;60484.78;5040926;28;20107;-68
2022/05/20 11:26:59;;;;;;;5.25;2.70;;;;;;;-145.18;100.00;60484.78;5032501;28;20034;-68
2022/05/20 11:29:46;;;;;;;6.10;2.80;;;;;;;-145.18;100.00;60484.78;5036733;28;20120;-68
2022/05/20 11:32:25;;;;;;;5.80;2.58;;;;;;;-145.18;100.00;60484.78;5040040;28;20021;-67
2022/05/20 11:35:19;;;;;;;5.13;2.53;;;;;;;-145.18;100.00;60484.78;5044438;28;20021;-68
2022/05/20 11:38:09;;;;;;;8.00;3.13;;;;;;;-145.18;100.00;60484.78;5034984;28;20040;-68
2022/05/20 11:40:41;;;;;;;5.65;2.90;;;;;;;-145.18;100.00;60484.78;5036618;28;20603;-68
2022/05/20 11:43:45;;;;;;;5.85;3.00;;;;;;;-145.18;100.00;60484.78;5036760;28;20032;-68
2022/05/20 11:46:51;;;;;;;6.10;2.70;;;;;;;-145.18;100.00;60484.78;5034796;28;20065;-69
2022/05/20 11:49:41;;;;;;;5.75;2.38;;;;;;;-145.18;100.00;60484.78;5032692;28;20087;-68
2022/05/20 11:52:25;;;;;;;4.93;2.35;;;;;;;-145.18;100.00;60484.78;5033876;28;20388;-68
2022/05/20 11:55:18;;;;;;;5.07;2.60;;;;;;;-145.18;100.00;60484.78;5042607;28;20118;-68
2022/05/20 11:57:49;;;;;;;6.53;2.58;;;;;;;-145.18;100.00;60484.78;5043652;28;20048;-68